Time;durP1;ratioP1;P1;durP2;ratioP2;P2;SDS_P1;SDS_P2;PMS_P1;PMS_P2;Temp;Humidity;BMP_temperature;BMP_pressure;BME280_temperature;BME280_humidity;BME280_pressure;Samples;Min_cycle;Max_cycle;Signal;HPM_P1;HPM_P2
2021/12/09 00:04:48;;;;;;;17.60;7.50;;;;;;;0.23;100.00;100112.53;15290171;19;20435;-60
2021/12/09 00:09:50;;;;;;;16.08;7.97;;;;;;;0.26;100.00;100122.97;15292148;19;20018;-59
2021/12/09 00:14:52;;;;;;;16.65;8.23;;;;;;;0.26;100.00;100112.66;15291279;19;20379;-59
2021/12/09 00:19:54;;;;;;;15.27;7.60;;;;;;;0.23;100.00;100117.69;15293127;19;20336;-58
2021/12/09 00:24:55;;;;;;;18.55;7.70;;;;;;;0.19;100.00;100105.47;15291848;19;20031;-59
2021/12/09 00:29:57;;;;;;;12.98;6.93;;;;;;;0.19;100.00;100108.91;15292094;19;20025;-59
2021/12/09 00:34:59;;;;;;;17.65;8.75;;;;;;;0.22;100.00;100115.91;15289137;19;20514;-59
2021/12/09 00:40:01;;;;;;;15.07;7.90;;;;;;;0.16;100.00;100117.34;15289696;19;20032;-59
2021/12/09 00:45:03;;;;;;;13.52;6.65;;;;;;;0.20;100.00;100127.84;15288702;19;20015;-60
2021/12/09 00:50:06;;;;;;;15.90;7.75;;;;;;;0.17;100.00;100134.59;15292845;19;20010;-60
2021/12/09 00:55:09;;;;;;;16.90;7.95;;;;;;;0.10;100.00;100123.91;15290402;19;20018;-59
2021/12/09 01:00:18;;;;;;;16.48;7.70;;;;;;;0.15;100.00;100141.38;15291339;19;20018;-59
2021/12/09 01:05:20;;;;;;;16.42;7.75;;;;;;;0.17;100.00;100137.16;15287128;19;20478;-60
2021/12/09 01:10:22;;;;;;;16.10;7.60;;;;;;;0.19;100.00;100146.66;15289583;19;20552;-59
2021/12/09 01:15:25;;;;;;;19.52;7.15;;;;;;;0.22;100.00;100147.69;15287084;19;20014;-58
2021/12/09 01:20:27;;;;;;;14.50;7.30;;;;;;;0.24;100.00;100148.66;15289197;19;20038;-60
2021/12/09 01:25:36;;;;;;;15.93;7.88;;;;;;;0.30;100.00;100140.31;15286830;19;20491;-60
2021/12/09 01:30:38;;;;;;;19.35;8.05;;;;;;;0.32;100.00;100143.88;15288668;19;20027;-60
2021/12/09 01:35:41;;;;;;;14.70;6.30;;;;;;;0.41;100.00;100144.31;15289484;19;20418;-59
2021/12/09 01:40:45;;;;;;;15.30;8.23;;;;;;;0.47;100.00;100148.88;15287372;19;20022;-60
2021/12/09 01:45:46;;;;;;;15.93;8.23;;;;;;;0.53;100.00;100150.03;15287025;19;20014;-59
2021/12/09 01:50:48;;;;;;;17.08;8.32;;;;;;;0.58;100.00;100149.38;15289541;19;20470;-60
2021/12/09 01:55:50;;;;;;;18.10;8.48;;;;;;;0.62;100.00;100148.72;15303283;19;20035;-59
2021/12/09 02:00:52;;;;;;;18.98;8.48;;;;;;;0.56;100.00;100140.69;15302968;19;20022;-59
2021/12/09 02:05:54;;;;;;;16.00;8.15;;;;;;;0.58;100.00;100136.47;15302037;19;20021;-59
2021/12/09 02:10:56;;;;;;;16.65;8.13;;;;;;;0.51;100.00;100131.06;15302599;19;20039;-58
2021/12/09 02:15:58;;;;;;;16.35;8.30;;;;;;;0.41;100.00;100131.41;15301860;19;20010;-60
2021/12/09 02:21:13;;;;;;;13.73;7.70;;;;;;;0.45;100.00;100119.56;15299615;19;20086;-59
2021/12/09 02:26:17;;;;;;;18.58;8.00;;;;;;;0.43;100.00;100123.75;15298759;19;20010;-59
2021/12/09 02:31:21;;;;;;;17.05;8.07;;;;;;;0.44;100.00;100123.84;15299632;19;20028;-59
2021/12/09 02:36:23;;;;;;;21.77;8.38;;;;;;;0.38;100.00;100123.56;15300988;19;20301;-59
2021/12/09 02:41:26;;;;;;;13.65;7.30;;;;;;;0.17;100.00;100119.13;15299206;19;20120;-59
2021/12/09 02:46:28;;;;;;;17.25;8.30;;;;;;;0.15;100.00;100119.84;15296823;19;20293;-58
2021/12/09 02:51:30;;;;;;;14.25;7.60;;;;;;;0.06;100.00;100125.47;15298778;19;20425;-59
2021/12/09 02:56:32;;;;;;;16.38;7.57;;;;;;;0.02;100.00;100136.41;15300702;19;20031;-59
2021/12/09 03:01:37;;;;;;;14.20;7.28;;;;;;;-0.07;100.00;100138.53;15297801;19;20011;-59
2021/12/09 03:06:42;;;;;;;15.90;7.65;;;;;;;-0.08;100.00;100135.06;15298559;19;20413;-60
2021/12/09 03:11:52;;;;;;;16.80;8.25;;;;;;;-0.07;100.00;100154.00;15295604;19;20069;-59
2021/12/09 03:16:57;;;;;;;13.75;7.13;;;;;;;-0.05;100.00;100145.50;15294080;19;20029;-59
2021/12/09 03:21:58;;;;;;;18.80;7.78;;;;;;;-0.06;100.00;100137.72;15294273;19;20014;-59
2021/12/09 03:27:01;;;;;;;16.30;7.07;;;;;;;-0.08;100.00;100135.06;15295330;19;20349;-58
2021/12/09 03:32:06;;;;;;;16.80;7.43;;;;;;;-0.06;100.00;100143.78;15295204;19;20070;-59
2021/12/09 03:37:12;;;;;;;21.67;7.85;;;;;;;-0.12;100.00;100151.19;15295320;19;20042;-59
2021/12/09 03:42:17;;;;;;;23.13;7.75;;;;;;;-0.13;100.00;100166.56;15293971;19;20082;-60
2021/12/09 03:47:22;;;;;;;16.23;7.63;;;;;;;-0.09;100.00;100161.63;15294285;19;20018;-60
2021/12/09 03:52:26;;;;;;;16.33;7.63;;;;;;;-0.11;100.00;100157.22;15294198;19;20014;-60
2021/12/09 03:57:28;;;;;;;16.30;8.27;;;;;;;-0.12;100.00;100163.16;15295991;19;20017;-57
2021/12/09 04:02:29;;;;;;;18.83;7.70;;;;;;;-0.03;100.00;100159.38;15294618;19;20022;-60
2021/12/09 04:07:31;;;;;;;20.35;8.13;;;;;;;0.02;100.00;100154.44;15294588;19;20295;-60
2021/12/09 04:12:34;;;;;;;14.35;7.47;;;;;;;0.07;100.00;100158.09;15294809;19;20014;-59
2021/12/09 04:17:35;;;;;;;21.83;8.13;;;;;;;-0.01;100.00;100155.16;15291775;19;20015;-59
2021/12/09 04:22:37;;;;;;;17.33;8.93;;;;;;;-0.02;100.00;100149.94;15291393;19;20026;-59
2021/12/09 04:27:39;;;;;;;15.68;8.00;;;;;;;-0.08;100.00;100147.94;15291233;19;20023;-59
2021/12/09 04:32:41;;;;;;;17.48;8.45;;;;;;;-0.20;100.00;100149.91;15291472;19;20023;-59
2021/12/09 04:37:43;;;;;;;16.00;8.00;;;;;;;-0.31;100.00;100149.38;15290167;19;20344;-58
2021/12/09 04:42:45;;;;;;;17.08;8.55;;;;;;;-0.36;100.00;100145.69;15291631;19;20010;-59
2021/12/09 04:47:46;;;;;;;15.90;7.72;;;;;;;-147.53;100.00;57128.34;15290934;19;20023;-60
2021/12/09 04:52:48;;;;;;;18.70;8.80;;;;;;;-147.53;100.00;57128.34;15291175;19;20038;-59
2021/12/09 04:57:50;;;;;;;18.50;7.55;;;;;;;-147.53;100.00;57128.34;15291630;19;20019;-60
2021/12/09 05:08:08;;;;;;;19.98;10.05;;;;;;;-147.53;100.00;57128.34;15290822;19;20011;-60
2021/12/09 05:13:10;;;;;;;24.73;9.10;;;;;;;-147.53;100.00;57128.34;15289946;19;20471;-59
2021/12/09 05:18:13;;;;;;;19.70;9.48;;;;;;;-147.53;100.00;57128.34;15289931;19;20014;-58
2021/12/09 05:23:16;;;;;;;18.35;9.07;;;;;;;-147.53;100.00;57128.34;15287455;19;20018;-58
2021/12/09 05:28:21;;;;;;;20.30;10.00;;;;;;;-147.53;100.00;57128.34;15285521;19;20886;-59
2021/12/09 05:33:23;;;;;;;17.38;8.52;;;;;;;-147.53;100.00;57128.34;15286650;19;20027;-60
2021/12/09 05:38:25;;;;;;;23.05;9.10;;;;;;;-147.53;100.00;57128.34;15285988;19;20033;-59
2021/12/09 05:43:27;;;;;;;22.55;9.77;;;;;;;-147.53;100.00;57128.34;15286612;19;20043;-58
2021/12/09 05:48:30;;;;;;;19.40;9.52;;;;;;;-147.53;100.00;57128.34;15287638;19;20057;-58
2021/12/09 05:53:32;;;;;;;20.67;9.13;;;;;;;-147.53;100.00;57128.34;15286433;19;20031;-60
2021/12/09 05:58:34;;;;;;;21.20;9.07;;;;;;;-147.53;100.00;57128.34;15288582;19;20028;-59
2021/12/09 06:03:36;;;;;;;18.33;10.07;;;;;;;-147.53;100.00;57128.34;15284478;19;20082;-60
2021/12/09 06:08:41;;;;;;;19.92;10.90;;;;;;;-147.53;100.00;57128.34;15284401;19;20011;-60
2021/12/09 06:13:45;;;;;;;18.80;10.15;;;;;;;-147.53;100.00;57128.34;15283695;19;20038;-59
2021/12/09 06:18:48;;;;;;;21.85;9.80;;;;;;;-147.53;100.00;57128.34;15286010;19;20035;-59
2021/12/09 06:23:50;;;;;;;21.80;10.73;;;;;;;-147.53;100.00;57128.34;15284137;19;20022;-59
2021/12/09 06:28:52;;;;;;;17.60;9.70;;;;;;;-147.53;100.00;57128.34;15284312;19;20074;-59
2021/12/09 06:33:54;;;;;;;17.13;9.32;;;;;;;-147.53;100.00;57128.34;15283432;19;20015;-60
2021/12/09 06:38:56;;;;;;;19.25;9.77;;;;;;;-147.53;100.00;57128.34;15291203;19;20726;-60
2021/12/09 06:43:58;;;;;;;23.80;10.68;;;;;;;-147.53;100.00;57128.34;15295870;19;20122;-60
2021/12/09 06:48:59;;;;;;;22.08;9.77;;;;;;;-147.53;100.00;57128.34;15290338;19;20014;-58
2021/12/09 06:54:02;;;;;;;17.88;9.60;;;;;;;-147.53;100.00;57128.34;15296753;19;20015;-60
2021/12/09 06:59:03;;;;;;;20.45;11.10;;;;;;;-147.53;100.00;57128.34;15299678;19;20361;-59
2021/12/09 07:04:10;;;;;;;24.77;10.65;;;;;;;-147.53;100.00;57128.34;15297189;19;20015;-60
2021/12/09 07:09:13;;;;;;;24.13;10.77;;;;;;;-147.53;100.00;57128.34;15298529;19;20110;-60
2021/12/09 07:14:15;;;;;;;24.92;11.55;;;;;;;-147.53;100.00;57128.34;15288515;19;20014;-60
2021/12/09 07:19:17;;;;;;;22.65;10.18;;;;;;;-147.53;100.00;57128.34;15280408;19;20015;-59
2021/12/09 07:24:19;;;;;;;23.23;10.85;;;;;;;-147.53;100.00;57128.34;15294047;19;20019;-60
2021/12/09 07:29:20;;;;;;;24.23;10.23;;;;;;;-147.53;100.00;57128.34;15296191;19;20014;-60
2021/12/09 07:34:22;;;;;;;20.23;10.60;;;;;;;-147.53;100.00;57128.34;15290495;19;20018;-60
2021/12/09 07:39:24;;;;;;;20.13;10.23;;;;;;;-147.53;100.00;57128.34;15297013;19;20041;-60
2021/12/09 07:44:30;;;;;;;22.90;11.48;;;;;;;-147.53;100.00;57128.34;15294971;19;20086;-60
2021/12/09 07:49:32;;;;;;;21.88;11.05;;;;;;;-147.53;100.00;57128.34;15294206;19;20499;-60
2021/12/09 07:54:34;;;;;;;19.77;10.05;;;;;;;-147.53;100.00;57128.34;15291972;19;20089;-60
2021/12/09 07:59:35;;;;;;;24.10;10.43;;;;;;;-147.53;100.00;57128.34;15291551;19;20014;-60
2021/12/09 08:04:38;;;;;;;20.60;9.82;;;;;;;-147.53;100.00;57128.34;15288796;19;20015;-60
2021/12/09 08:09:40;;;;;;;22.58;11.00;;;;;;;-147.53;100.00;57128.34;15295316;19;20026;-59
2021/12/09 08:14:41;;;;;;;21.90;10.05;;;;;;;-147.53;100.00;57128.34;15290427;19;20022;-59
2021/12/09 08:19:43;;;;;;;24.08;11.68;;;;;;;-147.53;100.00;57128.34;15292922;19;20014;-59
2021/12/09 08:24:46;;;;;;;26.00;11.00;;;;;;;-147.53;100.00;57128.34;15290821;19;20021;-60
2021/12/09 08:29:48;;;;;;;20.50;10.02;;;;;;;-147.53;100.00;57128.34;15292311;19;20028;-59
2021/12/09 08:34:53;;;;;;;23.52;12.35;;;;;;;-147.53;100.00;57128.34;15287127;19;20030;-60
2021/12/09 08:39:58;;;;;;;23.17;10.63;;;;;;;-147.53;100.00;57128.34;15292491;19;20474;-59
2021/12/09 08:45:00;;;;;;;23.02;11.15;;;;;;;-147.53;100.00;57128.34;15290890;19;20086;-60
2021/12/09 08:50:02;;;;;;;26.33;11.90;;;;;;;-147.53;100.00;57128.34;15292866;19;20349;-58
2021/12/09 08:55:05;;;;;;;25.60;11.50;;;;;;;-147.53;100.00;57128.34;15288344;19;20035;-59
2021/12/09 09:00:10;;;;;;;29.55;10.63;;;;;;;-147.53;100.00;57128.34;15286848;19;20019;-60
2021/12/09 09:05:13;;;;;;;26.60;11.90;;;;;;;-147.53;100.00;57128.34;15288186;19;20015;-60
2021/12/09 09:10:19;;;;;;;23.25;10.68;;;;;;;-147.53;100.00;57128.34;15289160;19;20018;-59
2021/12/09 09:15:23;;;;;;;23.55;11.20;;;;;;;-147.53;100.00;57128.34;15287112;19;20665;-60
2021/12/09 09:20:27;;;;;;;27.30;11.23;;;;;;;-147.53;100.00;57128.34;15289648;19;20031;-60
2021/12/09 09:25:29;;;;;;;21.45;11.20;;;;;;;-147.53;100.00;57128.34;15287535;19;20027;-59
2021/12/09 09:30:36;;;;;;;27.30;12.18;;;;;;;-147.53;100.00;57128.34;15290339;19;20695;-58
2021/12/09 09:35:39;;;;;;;29.42;13.13;;;;;;;-147.53;100.00;57128.34;15289916;19;20785;-59
2021/12/09 09:40:50;;;;;;;32.25;14.05;;;;;;;-147.53;100.00;57128.34;15288960;19;20014;-59
2021/12/09 09:45:53;;;;;;;24.48;12.05;;;;;;;-147.53;100.00;57128.34;15290982;19;20022;-58
2021/12/09 09:50:57;;;;;;;30.88;13.32;;;;;;;-147.53;100.00;57128.34;15290805;19;20023;-58
2021/12/09 09:55:59;;;;;;;36.08;14.00;;;;;;;-147.53;100.00;57128.34;15288740;19;20026;-57
2021/12/09 10:01:00;;;;;;;29.70;13.95;;;;;;;-147.53;100.00;57128.34;15287254;19;20035;-58
2021/12/09 10:06:02;;;;;;;35.22;14.25;;;;;;;-147.53;100.00;57128.34;15286620;19;20014;-58
2021/12/09 10:11:05;;;;;;;33.13;12.95;;;;;;;-147.53;100.00;57128.34;15283614;19;20014;-57
2021/12/09 10:16:17;;;;;;;24.60;11.57;;;;;;;-147.53;100.00;57128.34;15301212;19;20541;-58
2021/12/09 10:21:28;;;;;;;24.33;11.88;;;;;;;-147.53;100.00;57128.34;15301677;19;20040;-58
2021/12/09 10:26:37;;;;;;;;;;;;;;;-147.53;100.00;57128.34;15302147;19;20044;-58
2021/12/09 10:31:50;;;;;;;28.35;13.23;;;;;;;-147.53;100.00;57128.34;15299639;19;20352;-58
2021/12/09 10:36:54;;;;;;;23.90;12.02;;;;;;;-147.53;100.00;57128.34;15303347;19;20015;-56
2021/12/09 10:41:58;;;;;;;26.67;13.20;;;;;;;-147.53;100.00;57128.34;15300366;19;20043;-57
2021/12/09 10:47:10;;;;;;;27.23;13.18;;;;;;;-147.53;100.00;57128.34;15300035;19;20014;-58
2021/12/09 10:52:19;;;;;;;28.10;14.13;;;;;;;-147.53;100.00;57128.34;15298437;19;20026;-58
2021/12/09 10:57:29;;;;;;;31.27;13.35;;;;;;;-147.53;100.00;57128.34;15299290;19;20019;-59
2021/12/09 11:02:31;;;;;;;29.58;13.25;;;;;;;-147.53;100.00;57128.34;15298098;19;20014;-59
2021/12/09 11:07:33;;;;;;;32.38;15.00;;;;;;;-147.53;100.00;57128.34;15298058;19;20018;-59
2021/12/09 11:12:35;;;;;;;21.48;11.65;;;;;;;-147.53;100.00;57128.34;15295801;19;20019;-59
2021/12/09 11:17:41;;;;;;;26.20;13.10;;;;;;;-147.53;100.00;57128.34;15296325;19;20010;-59
2021/12/09 11:22:45;;;;;;;28.50;12.93;;;;;;;-147.53;100.00;57128.34;15292620;19;20019;-58
2021/12/09 11:28:11;;;;;;;27.95;12.77;;;;;;;-147.53;100.00;57128.34;15296565;19;20039;-59
2021/12/09 11:33:15;;;;;;;26.13;11.57;;;;;;;-147.53;100.00;57128.34;15295538;19;20088;-59
2021/12/09 11:38:20;;;;;;;25.98;12.40;;;;;;;-147.53;100.00;57128.34;15298261;19;20014;-59
2021/12/09 11:43:24;;;;;;;27.30;13.23;;;;;;;-147.53;100.00;57128.34;15296666;19;20486;-58
2021/12/09 11:48:27;;;;;;;27.10;13.15;;;;;;;-147.53;100.00;57128.34;15297666;19;20035;-58
2021/12/09 11:53:33;;;;;;;29.17;12.88;;;;;;;-147.53;100.00;57128.34;15293271;19;20014;-58
2021/12/09 11:58:50;;;;;;;26.25;11.63;;;;;;;-147.53;100.00;57128.34;15304766;19;20592;-59
2021/12/09 12:14:51;;;;;;;27.83;12.43;;;;;;;-147.53;100.00;57128.34;15291547;19;20068;-58
2021/12/09 12:20:09;;;;;;;26.52;12.15;;;;;;;-147.53;100.00;57128.34;15291798;19;20078;-58
2021/12/09 12:41:21;;;;;;;27.63;13.23;;;;;;;-147.53;100.00;57128.34;15290182;19;20024;-57
2021/12/09 12:47:07;;;;;;;30.50;14.27;;;;;;;-147.53;100.00;57128.34;15293135;19;20648;-59
2021/12/09 12:52:14;;;;;;;30.38;14.80;;;;;;;-147.53;100.00;57128.34;15289762;19;20014;-58
2021/12/09 12:57:38;;;;;;;29.70;13.38;;;;;;;-147.53;100.00;57128.34;15292371;19;20556;-59
2021/12/09 13:13:26;;;;;;;28.67;13.55;;;;;;;-147.53;100.00;57128.34;15284028;19;20078;-58
2021/12/09 13:18:46;;;;;;;36.90;15.70;;;;;;;-147.53;100.00;57128.34;15287019;19;20018;-58
2021/12/09 13:24:28;;;;;;;36.38;16.17;;;;;;;-147.53;100.00;57128.34;15285294;19;20085;-58
2021/12/09 13:29:40;;;;;;;34.05;13.95;;;;;;;-147.53;100.00;57128.34;15284800;19;20027;-59
2021/12/09 13:34:59;;;;;;;29.50;13.32;;;;;;;-147.53;100.00;57128.34;15286209;19;20088;-57
2021/12/09 13:50:49;;;;;;;27.08;12.00;;;;;;;-147.53;100.00;57128.34;15303964;19;20018;-57
2021/12/09 13:55:51;;;;;;;27.95;11.68;;;;;;;-147.53;100.00;57128.34;15304398;19;20024;-57
2021/12/09 14:00:53;;;;;;;22.77;10.77;;;;;;;-147.53;100.00;57128.34;15301694;19;20074;-58
2021/12/09 14:05:55;;;;;;;18.67;9.10;;;;;;;-147.53;100.00;57128.34;15300572;19;20015;-58
2021/12/09 14:11:02;;;;;;;20.45;10.05;;;;;;;-147.53;100.00;57128.34;15300601;19;20039;-58
2021/12/09 14:16:17;;;;;;;17.52;8.00;;;;;;;-0.36;100.00;100145.69;15301458;19;20014;-57
2021/12/09 14:21:20;;;;;;;16.17;8.52;;;;;;;2.60;95.96;100194.19;15301275;19;20023;-58
2021/12/09 14:26:22;;;;;;;14.48;7.47;;;;;;;2.61;95.78;100204.59;15300392;19;20027;-59
2021/12/09 14:31:23;;;;;;;20.67;8.07;;;;;;;2.56;95.72;100202.66;15300145;19;20022;-57
2021/12/09 14:36:25;;;;;;;14.45;7.05;;;;;;;2.51;95.96;100205.06;15300616;19;20414;-57
2021/12/09 14:41:27;;;;;;;15.95;7.07;;;;;;;2.55;95.84;100206.03;15297482;19;20026;-58
2021/12/09 14:46:36;;;;;;;19.30;7.38;;;;;;;2.57;95.28;100199.25;15300691;19;20750;-57
2021/12/09 14:51:42;;;;;;;12.00;6.57;;;;;;;2.53;95.74;100197.34;15300771;19;20010;-57
2021/12/09 14:56:48;;;;;;;13.10;6.63;;;;;;;2.51;95.71;100202.47;15302173;19;20035;-56
2021/12/09 15:02:11;;;;;;;18.50;8.35;;;;;;;2.50;95.85;100184.31;15294284;19;20561;-58
2021/12/09 15:07:50;;;;;;;16.25;6.95;;;;;;;2.50;95.95;100187.78;15295594;19;20027;-57
2021/12/09 15:12:52;;;;;;;12.95;6.70;;;;;;;2.45;95.76;100184.13;15296012;19;20018;-58
2021/12/09 15:17:59;;;;;;;12.68;6.57;;;;;;;2.49;95.49;100193.75;15290478;19;20014;-56
2021/12/09 15:23:13;;;;;;;14.68;6.75;;;;;;;2.47;95.44;100198.84;15293744;19;20022;-56
2021/12/09 15:28:19;;;;;;;20.02;6.80;;;;;;;2.43;95.51;100180.59;15285724;19;20023;-58
2021/12/09 15:33:41;;;;;;;16.38;7.93;;;;;;;2.48;95.80;100182.53;15286674;19;20014;-58
2021/12/09 15:39:21;;;;;;;16.13;8.52;;;;;;;2.42;95.77;100195.22;15292853;19;20014;-56
2021/12/09 15:44:27;;;;;;;15.70;7.20;;;;;;;2.44;95.76;100197.88;15290894;19;20481;-56
2021/12/09 15:49:40;;;;;;;15.32;7.75;;;;;;;2.41;95.88;100192.56;15288718;19;20017;-58
2021/12/09 15:54:51;;;;;;;18.10;8.68;;;;;;;2.38;95.81;100187.28;15287898;19;20018;-58
2021/12/09 15:59:56;;;;;;;17.55;8.05;;;;;;;2.35;96.25;100197.50;15294992;19;20018;-56
2021/12/09 16:04:58;;;;;;;17.45;9.13;;;;;;;2.40;96.33;100206.31;15291386;19;20042;-58
2021/12/09 16:10:00;;;;;;;15.95;7.85;;;;;;;2.39;95.79;100196.81;15287682;19;20025;-57
2021/12/09 16:15:08;;;;;;;18.05;9.30;;;;;;;2.37;95.80;100201.00;15285403;19;20470;-57
2021/12/09 16:20:22;;;;;;;15.60;8.68;;;;;;;2.44;95.51;100200.44;15288085;19;20038;-58
2021/12/09 16:25:24;;;;;;;15.57;8.02;;;;;;;2.38;96.04;100201.06;15286788;19;20034;-56
2021/12/09 16:30:28;;;;;;;21.95;8.68;;;;;;;2.45;95.86;100199.63;15287486;19;20011;-58
2021/12/09 16:35:35;;;;;;;16.40;9.18;;;;;;;2.48;95.66;100212.69;15288287;19;20031;-58
2021/12/09 16:40:40;;;;;;;20.55;10.27;;;;;;;2.43;95.84;100204.75;15290425;19;20017;-59
2021/12/09 16:45:43;;;;;;;16.13;8.15;;;;;;;2.48;95.92;100210.09;15293184;19;20014;-58
2021/12/09 16:50:47;;;;;;;25.55;11.88;;;;;;;2.54;95.08;100212.03;15289131;19;20014;-57
2021/12/09 16:55:57;;;;;;;19.75;11.05;;;;;;;2.46;95.80;100202.28;15293370;19;20014;-58
2021/12/09 17:00:58;;;;;;;18.45;9.82;;;;;;;2.56;95.80;100198.34;15290271;19;20419;-58
2021/12/09 17:06:02;;;;;;;23.42;10.45;;;;;;;2.50;95.60;100199.81;15290016;19;20459;-59
2021/12/09 17:11:04;;;;;;;20.60;10.73;;;;;;;2.54;95.60;100197.41;15288026;19;20084;-58
2021/12/09 17:16:06;;;;;;;21.13;10.80;;;;;;;2.53;95.98;100210.28;15288608;19;20018;-59
2021/12/09 17:21:09;;;;;;;21.05;10.68;;;;;;;2.57;95.87;100205.28;15284867;19;20010;-58
2021/12/09 17:26:13;;;;;;;21.58;12.15;;;;;;;2.60;95.69;100195.06;15291082;19;20121;-59
2021/12/09 17:31:25;;;;;;;25.25;12.93;;;;;;;2.62;95.70;100183.09;15287044;19;20027;-58
2021/12/09 17:36:27;;;;;;;25.20;13.60;;;;;;;2.65;95.77;100185.78;15287049;19;20061;-57
2021/12/09 17:41:29;;;;;;;29.88;14.00;;;;;;;2.67;95.59;100196.19;15287981;19;20475;-57
2021/12/09 17:46:33;;;;;;;28.88;14.00;;;;;;;2.75;95.31;100184.47;15288455;19;20720;-57
2021/12/09 17:51:43;;;;;;;28.80;13.82;;;;;;;2.74;95.17;100189.56;15287948;19;20019;-59
2021/12/09 17:56:44;;;;;;;28.77;14.75;;;;;;;2.74;95.10;100186.97;15288155;19;20039;-59
2021/12/09 18:01:46;;;;;;;27.90;13.95;;;;;;;2.82;95.15;100180.38;15285941;19;20574;-58
2021/12/09 18:06:55;;;;;;;26.95;14.27;;;;;;;2.80;95.12;100174.28;15286525;19;20024;-59
2021/12/09 18:11:58;;;;;;;29.13;15.18;;;;;;;2.78;95.51;100173.34;15285879;19;20499;-58
2021/12/09 18:17:12;;;;;;;29.98;14.57;;;;;;;2.71;95.90;100172.22;15284845;19;20017;-58
2021/12/09 18:22:15;;;;;;;27.42;13.07;;;;;;;2.69;96.25;100170.41;15285626;19;20032;-58
2021/12/09 18:27:21;;;;;;;31.75;13.65;;;;;;;2.68;95.88;100163.47;15283604;19;20016;-58
2021/12/09 18:32:23;;;;;;;28.70;13.32;;;;;;;2.63;95.82;100176.22;15286133;19;20022;-59
2021/12/09 18:37:35;;;;;;;24.25;12.85;;;;;;;2.61;96.05;100176.16;15300149;19;20078;-58
2021/12/09 18:42:39;;;;;;;22.63;12.15;;;;;;;2.63;96.03;100176.22;15299241;19;20027;-56
2021/12/09 18:47:41;;;;;;;26.88;12.45;;;;;;;2.60;96.06;100165.78;15298990;19;20349;-58
2021/12/09 18:52:43;;;;;;;26.35;12.70;;;;;;;2.58;96.13;100163.13;15297197;19;20036;-59
2021/12/09 18:58:08;;;;;;;27.63;12.82;;;;;;;2.59;96.25;100162.28;15296656;19;20014;-56
2021/12/09 19:03:11;;;;;;;24.95;11.40;;;;;;;2.56;96.52;100153.53;15293903;19;20118;-58
2021/12/09 19:08:14;;;;;;;21.85;12.13;;;;;;;2.46;96.89;100148.00;15289630;19;20086;-57
2021/12/09 19:13:18;;;;;;;31.50;12.77;;;;;;;2.45;96.71;100146.25;15288615;19;20018;-58
2021/12/09 19:18:26;;;;;;;25.38;12.82;;;;;;;2.43;96.70;100147.91;15293407;19;20378;-58
2021/12/09 19:23:29;;;;;;;28.40;13.63;;;;;;;2.42;96.73;100150.41;15289033;19;20031;-58
2021/12/09 19:28:32;;;;;;;27.50;13.52;;;;;;;2.43;96.73;100139.25;15292062;19;20661;-58
2021/12/09 19:33:35;;;;;;;32.20;14.38;;;;;;;2.40;97.08;100132.28;15291719;19;20021;-59
2021/12/09 19:38:37;;;;;;;26.88;11.60;;;;;;;2.42;97.40;100128.03;15296903;19;20723;-58
2021/12/09 19:43:40;;;;;;;24.52;12.75;;;;;;;2.44;97.08;100135.84;15288137;19;20490;-57
2021/12/09 19:48:42;;;;;;;25.85;12.93;;;;;;;2.44;97.37;100138.44;15290932;19;20024;-58
2021/12/09 19:53:44;;;;;;;25.20;13.52;;;;;;;2.51;97.52;100132.69;15292360;19;20014;-58
2021/12/09 19:58:45;;;;;;;31.75;14.05;;;;;;;2.47;97.30;100115.28;15295197;19;20364;-58
2021/12/09 20:03:47;;;;;;;27.45;12.82;;;;;;;2.50;97.31;100120.56;15290986;19;20022;-57
2021/12/09 20:08:53;;;;;;;27.15;13.13;;;;;;;2.49;97.22;100113.63;15290917;19;20405;-58
2021/12/09 20:13:55;;;;;;;24.95;12.88;;;;;;;2.46;97.43;100095.44;15289420;19;20424;-58
2021/12/09 20:18:57;;;;;;;28.70;13.20;;;;;;;2.53;96.78;100094.84;15293276;19;20011;-59
2021/12/09 20:24:09;;;;;;;25.17;13.20;;;;;;;2.51;97.06;100086.16;15288015;19;20025;-59
2021/12/09 20:29:10;;;;;;;28.40;12.98;;;;;;;2.52;97.04;100103.41;15289812;19;20024;-60
2021/12/09 20:34:12;;;;;;;23.85;11.52;;;;;;;2.56;96.65;100094.97;15287407;19;20438;-59
2021/12/09 20:39:14;;;;;;;21.40;11.25;;;;;;;2.52;96.53;100077.56;15292182;19;20429;-58
2021/12/09 20:44:16;;;;;;;28.20;13.35;;;;;;;2.56;96.62;100076.00;15285973;19;20379;-59
2021/12/09 20:49:17;;;;;;;30.90;12.20;;;;;;;2.52;96.44;100072.41;15289624;19;20019;-59
2021/12/09 20:54:20;;;;;;;29.85;13.30;;;;;;;2.51;96.55;100067.16;15289247;19;20018;-57
2021/12/09 20:59:21;;;;;;;35.42;14.25;;;;;;;2.55;96.48;100050.97;15285941;19;20018;-59
2021/12/09 21:04:23;;;;;;;24.45;11.38;;;;;;;2.59;95.90;100040.78;15290318;19;20035;-57
2021/12/09 21:09:25;;;;;;;24.15;11.70;;;;;;;2.56;95.70;100034.66;15287615;19;20007;-59
2021/12/09 21:14:26;;;;;;;22.30;10.60;;;;;;;2.54;95.55;100025.94;15287468;19;20011;-59
2021/12/09 21:19:28;;;;;;;26.02;11.13;;;;;;;2.49;95.84;100028.34;15290380;19;20022;-58
2021/12/09 21:24:30;;;;;;;28.00;12.85;;;;;;;2.60;95.35;100027.06;15288512;19;20015;-58
2021/12/09 21:29:33;;;;;;;25.05;12.15;;;;;;;2.54;95.63;100019.09;15287026;19;20014;-58
2021/12/09 21:34:45;;;;;;;33.45;13.15;;;;;;;2.59;95.49;100014.94;15288608;19;20028;-58
2021/12/09 21:39:48;;;;;;;24.80;11.90;;;;;;;2.55;96.13;100010.50;15290462;19;20496;-59
2021/12/09 21:44:50;;;;;;;21.60;11.23;;;;;;;2.63;95.41;100011.66;15287788;19;20018;-59
2021/12/09 21:49:51;;;;;;;23.60;10.85;;;;;;;2.58;95.92;100005.47;15286628;19;20093;-57
2021/12/09 21:54:53;;;;;;;21.45;10.68;;;;;;;2.57;95.83;99992.47;15285669;19;20018;-58
2021/12/09 21:59:55;;;;;;;26.23;11.73;;;;;;;2.57;95.92;99988.19;15288573;19;20010;-59
2021/12/09 22:04:56;;;;;;;24.85;9.88;;;;;;;2.50;96.26;99995.66;15285775;19;20027;-59
2021/12/09 22:10:00;;;;;;;26.27;9.93;;;;;;;2.52;96.03;99988.81;15294903;19;20018;-58
2021/12/09 22:15:02;;;;;;;21.10;10.43;;;;;;;2.48;96.04;99987.84;15299112;19;20011;-58
2021/12/09 22:20:05;;;;;;;20.55;9.63;;;;;;;2.47;95.74;99973.16;15302684;19;20014;-58
2021/12/09 22:25:08;;;;;;;21.20;10.48;;;;;;;2.46;96.01;99969.69;15298436;19;20022;-58
2021/12/09 22:30:10;;;;;;;24.50;11.32;;;;;;;2.50;95.99;99960.34;15298736;19;20409;-59
2021/12/09 22:35:12;;;;;;;21.48;11.00;;;;;;;2.43;96.35;99961.84;15298114;19;20081;-58
2021/12/09 22:40:14;;;;;;;26.40;11.13;;;;;;;2.46;96.17;99948.13;15302347;19;20537;-58
2021/12/09 22:45:15;;;;;;;22.58;10.93;;;;;;;2.50;96.56;99946.56;15295101;19;20022;-59
2021/12/09 22:50:18;;;;;;;24.10;10.88;;;;;;;2.46;96.63;99933.53;15297459;19;20523;-57
2021/12/09 22:55:27;;;;;;;22.85;9.27;;;;;;;2.46;96.58;99924.88;15295819;19;20018;-59
2021/12/09 23:00:34;;;;;;;26.27;11.38;;;;;;;2.42;96.81;99923.03;15299406;19;20593;-57
2021/12/09 23:05:39;;;;;;;25.92;11.35;;;;;;;2.42;96.97;99913.56;15296121;19;20023;-59
2021/12/09 23:10:41;;;;;;;23.75;10.07;;;;;;;2.41;96.74;99908.34;15296266;19;20078;-58
2021/12/09 23:15:47;;;;;;;29.23;11.43;;;;;;;2.42;97.19;99904.94;15298557;19;20635;-58
2021/12/09 23:20:49;;;;;;;27.63;10.77;;;;;;;2.40;96.97;99896.22;15294380;19;20467;-59
2021/12/09 23:25:52;;;;;;;20.95;9.20;;;;;;;2.40;97.19;99891.06;15297543;19;20738;-59
2021/12/09 23:30:56;;;;;;;35.08;11.15;;;;;;;2.36;97.23;99874.59;15295276;19;20014;-58
2021/12/09 23:35:57;;;;;;;30.38;11.82;;;;;;;2.44;97.07;99861.94;15298945;19;20078;-57
2021/12/09 23:41:00;;;;;;;23.63;10.23;;;;;;;2.38;97.17;99851.38;15298427;19;20106;-59
2021/12/09 23:46:03;;;;;;;25.15;11.07;;;;;;;2.37;97.69;99840.19;15297443;19;20023;-59